Time;durP1;ratioP1;P1;durP2;ratioP2;P2;SDS_P1;SDS_P2;PMS_P1;PMS_P2;Temp;Humidity;BMP_temperature;BMP_pressure;BME280_temperature;BME280_humidity;BME280_pressure;Samples;Min_cycle;Max_cycle;Signal;HPM_P1;HPM_P2
2021/05/16 00:01:54;;;;;;;12.23;7.28;;;;;;;7.01;100.00;100148.31;4955002;28;20120;-75
2021/05/16 00:04:20;;;;;;;12.00;8.27;;;;;;;7.00;100.00;100147.44;4985859;28;20046;-75
2021/05/16 00:06:47;;;;;;;10.85;7.05;;;;;;;6.96;100.00;100140.88;4955478;28;20145;-75
2021/05/16 00:09:13;;;;;;;9.15;7.15;;;;;;;7.01;100.00;100149.13;4978349;28;20138;-76
2021/05/16 00:11:38;;;;;;;8.80;7.15;;;;;;;7.09;100.00;100150.22;4973332;28;20054;-74
2021/05/16 00:14:04;;;;;;;8.60;6.95;;;;;;;7.07;100.00;100142.53;4964693;28;20046;-75
2021/05/16 00:16:30;;;;;;;10.45;7.22;;;;;;;7.08;100.00;100143.34;4952581;28;20034;-75
2021/05/16 00:18:56;;;;;;;15.32;8.35;;;;;;;7.08;100.00;100133.72;4968038;28;20742;-75
2021/05/16 00:21:22;;;;;;;8.02;7.05;;;;;;;7.09;100.00;100135.38;4968631;28;20050;-75
2021/05/16 00:23:47;;;;;;;9.00;7.25;;;;;;;7.10;100.00;100138.81;4983463;28;20061;-74
2021/05/16 00:26:13;;;;;;;12.13;7.22;;;;;;;7.13;100.00;100131.53;4978894;28;20050;-76
2021/05/16 00:28:39;;;;;;;13.55;7.22;;;;;;;7.17;100.00;100134.69;4966473;28;20041;-75
2021/05/16 00:31:05;;;;;;;8.27;6.90;;;;;;;7.15;100.00;100132.22;4976538;28;20063;-76
2021/05/16 00:33:31;;;;;;;10.68;7.60;;;;;;;7.17;100.00;100127.69;4959108;28;20161;-76
2021/05/16 00:35:57;;;;;;;10.52;6.25;;;;;;;7.19;100.00;100130.97;4951834;28;20069;-74
2021/05/16 00:38:22;;;;;;;7.85;6.80;;;;;;;7.24;100.00;100140.19;4985119;28;20039;-78
2021/05/16 00:40:48;;;;;;;12.05;6.82;;;;;;;7.25;100.00;100136.59;4985419;28;20160;-77
2021/05/16 00:43:14;;;;;;;9.25;6.55;;;;;;;7.22;100.00;100135.91;4967286;28;20412;-76
2021/05/16 00:45:39;;;;;;;8.73;7.00;;;;;;;7.24;100.00;100127.94;4967922;28;20042;-77
2021/05/16 00:48:06;;;;;;;9.10;6.10;;;;;;;7.28;100.00;100131.09;4965606;28;20065;-77
2021/05/16 00:50:38;;;;;;;8.75;5.93;;;;;;;7.25;100.00;100134.78;4986116;28;20133;-77
2021/05/16 00:53:04;;;;;;;6.65;5.97;;;;;;;7.25;100.00;100129.59;4952264;28;20041;-76
2021/05/16 00:55:31;;;;;;;8.02;5.40;;;;;;;7.28;100.00;100124.09;4960742;28;20108;-77
2021/05/16 00:57:57;;;;;;;9.95;5.70;;;;;;;7.32;100.00;100132.47;4987118;28;20150;-77
2021/05/16 01:00:28;;;;;;;8.30;5.80;;;;;;;7.43;100.00;100128.88;4992781;28;20164;-76
2021/05/16 01:03:00;;;;;;;7.82;5.97;;;;;;;7.53;100.00;100129.66;4964151;28;20054;-78
2021/05/16 01:05:28;;;;;;;7.68;6.20;;;;;;;7.57;100.00;100123.19;4967026;28;20558;-76
2021/05/16 01:07:54;;;;;;;7.65;6.20;;;;;;;7.53;100.00;100120.03;4950552;28;20067;-76
2021/05/16 01:10:20;;;;;;;7.55;6.13;;;;;;;7.60;100.00;100115.09;4985538;28;20045;-76
2021/05/16 01:12:49;;;;;;;6.38;5.78;;;;;;;7.65;100.00;100119.88;4979676;28;20045;-76
2021/05/16 01:15:19;;;;;;;6.32;5.72;;;;;;;7.62;100.00;100115.78;4965636;28;20057;-77
2021/05/16 01:17:46;;;;;;;6.78;5.68;;;;;;;7.64;100.00;100110.41;4950455;28;20034;-77
2021/05/16 01:20:18;;;;;;;8.15;4.95;;;;;;;7.63;100.00;100106.13;4982325;28;20077;-77
2021/05/16 01:23:10;;;;;;;6.32;5.63;;;;;;;7.68;100.00;100103.94;4949617;28;20047;-76
2021/05/16 01:25:41;;;;;;;7.53;5.55;;;;;;;7.69;100.00;100110.81;4963225;28;20508;-75
2021/05/16 01:28:07;;;;;;;6.55;5.25;;;;;;;7.67;100.00;100104.91;4981951;28;20136;-77
2021/05/16 01:30:34;;;;;;;6.53;5.93;;;;;;;7.68;100.00;100103.94;4979004;28;20454;-76
2021/05/16 01:33:03;;;;;;;6.38;5.60;;;;;;;7.70;100.00;100102.81;4981171;28;20034;-78
2021/05/16 01:35:29;;;;;;;10.13;6.50;;;;;;;7.69;100.00;100116.03;4968376;28;20042;-77
2021/05/16 01:37:55;;;;;;;6.97;6.28;;;;;;;7.68;100.00;100103.94;4976215;28;20046;-76
2021/05/16 01:40:21;;;;;;;9.15;7.20;;;;;;;7.67;100.00;100107.53;4987895;28;20052;-77
2021/05/16 01:42:53;;;;;;;8.32;6.25;;;;;;;7.71;100.00;100111.50;4982532;28;20665;-76
2021/05/16 01:45:24;;;;;;;6.50;5.88;;;;;;;7.70;100.00;100115.06;4973179;28;20086;-77
2021/05/16 01:47:55;;;;;;;6.63;5.90;;;;;;;7.67;100.00;100110.94;4947480;28;20039;-76
2021/05/16 01:50:24;;;;;;;6.82;5.75;;;;;;;7.60;100.00;100110.69;4988651;28;20058;-77
2021/05/16 01:52:51;;;;;;;6.25;5.20;;;;;;;7.60;100.00;100112.47;4972894;28;20046;-76
2021/05/16 01:55:18;;;;;;;7.50;5.90;;;;;;;7.58;100.00;100114.41;4989706;28;20042;-76
2021/05/16 01:57:45;;;;;;;6.40;5.75;;;;;;;7.58;100.00;100117.03;4989317;28;20042;-77
2021/05/16 02:00:15;;;;;;;7.20;5.68;;;;;;;7.62;100.00;100115.78;4989998;28;20056;-76
2021/05/16 02:02:45;;;;;;;6.40;5.80;;;;;;;7.62;100.00;100115.78;4991441;28;20042;-76
2021/05/16 02:05:15;;;;;;;7.50;6.15;;;;;;;7.68;100.00;100119.59;4956905;28;20046;-76
2021/05/16 02:07:47;;;;;;;9.10;6.25;;;;;;;7.71;100.00;100124.53;4971611;28;20070;-78
2021/05/16 02:10:13;;;;;;;7.60;6.68;;;;;;;7.73;100.00;100125.22;4973641;28;20050;-76
2021/05/16 02:12:39;;;;;;;6.00;5.40;;;;;;;7.68;100.00;100111.75;4973689;28;20530;-76
2021/05/16 02:15:06;;;;;;;8.43;5.97;;;;;;;7.69;100.00;100119.47;4976824;28;20100;-76
2021/05/16 02:17:33;;;;;;;6.03;5.53;;;;;;;7.70;100.00;100117.66;4988189;28;20045;-76
2021/05/16 02:19:59;;;;;;;5.93;5.22;;;;;;;7.73;100.00;100120.00;4987607;28;20046;-77
2021/05/16 02:22:25;;;;;;;6.03;5.43;;;;;;;7.70;100.00;100107.22;4986103;28;20395;-77
2021/05/16 02:24:50;;;;;;;6.45;5.85;;;;;;;7.71;100.00;100114.09;4989134;28;20054;-77
2021/05/16 02:27:23;;;;;;;7.15;5.50;;;;;;;7.69;100.00;100114.25;4984423;28;20046;-77
2021/05/16 02:29:53;;;;;;;8.10;5.97;;;;;;;7.70;100.00;100110.66;4976018;28;20046;-77
2021/05/16 02:32:20;;;;;;;6.80;5.20;;;;;;;7.67;100.00;100108.34;4958702;28;20072;-77
2021/05/16 02:34:47;;;;;;;6.00;5.25;;;;;;;7.62;100.00;100107.13;4990085;28;20061;-77
2021/05/16 02:37:20;;;;;;;6.55;5.95;;;;;;;7.66;100.00;100116.31;4985001;28;20120;-76
2021/05/16 02:39:47;;;;;;;6.75;5.95;;;;;;;7.67;100.00;100116.16;4988929;28;20048;-77
2021/05/16 02:42:12;;;;;;;6.55;5.85;;;;;;;7.68;100.00;100112.56;4988403;28;20054;-77
2021/05/16 02:44:39;;;;;;;6.95;5.20;;;;;;;7.63;100.00;100109.59;4974539;28;20103;-76
2021/05/16 02:47:04;;;;;;;7.95;5.57;;;;;;;7.56;100.00;100111.94;4975032;28;20567;-77
2021/05/16 02:49:31;;;;;;;6.43;5.72;;;;;;;7.52;100.00;100120.22;4991431;28;20042;-77
2021/05/16 02:51:57;;;;;;;6.93;6.22;;;;;;;7.55;100.00;100125.13;4976276;28;20104;-77
2021/05/16 02:54:24;;;;;;;8.15;6.28;;;;;;;7.57;100.00;100110.16;4975196;28;20144;-77
2021/05/16 02:56:50;;;;;;;7.05;6.35;;;;;;;7.57;100.00;100113.59;4974646;28;20591;-78
2021/05/16 02:59:18;;;;;;;9.82;6.05;;;;;;;7.58;100.00;100106.59;4973760;28;20046;-76
2021/05/16 03:01:43;;;;;;;6.90;6.20;;;;;;;7.62;100.00;100109.72;4987297;28;20038;-77
2021/05/16 03:04:09;;;;;;;6.93;6.25;;;;;;;7.62;100.00;100112.34;4956125;28;20656;-76
2021/05/16 03:06:36;;;;;;;6.72;6.03;;;;;;;7.58;100.00;100104.78;4969894;28;20050;-77
2021/05/16 03:09:02;;;;;;;6.28;5.68;;;;;;;7.57;100.00;100105.78;4987661;28;20406;-75
2021/05/16 03:11:31;;;;;;;6.43;5.82;;;;;;;7.57;100.00;100107.53;4971243;28;20046;-77
2021/05/16 03:13:58;;;;;;;7.03;6.32;;;;;;;7.56;100.00;100106.72;4970276;28;20065;-76
2021/05/16 03:16:29;;;;;;;7.75;5.85;;;;;;;7.57;100.00;100102.31;4948114;28;20056;-76
2021/05/16 03:18:55;;;;;;;7.30;6.13;;;;;;;7.57;100.00;100107.53;4974093;28;20061;-76
2021/05/16 03:21:21;;;;;;;7.22;6.35;;;;;;;7.54;100.00;100093.00;4940839;28;20398;-78
2021/05/16 03:23:48;;;;;;;7.93;6.70;;;;;;;7.55;100.00;100102.47;4990645;28;20047;-77
2021/05/16 03:26:14;;;;;;;10.40;6.63;;;;;;;7.50;100.00;100098.66;4953160;28;20158;-76
2021/05/16 03:28:40;;;;;;;11.55;6.38;;;;;;;7.36;100.00;100089.47;4985725;28;20393;-76
2021/05/16 03:31:05;;;;;;;7.00;6.00;;;;;;;7.35;100.00;100101.69;4992938;28;20042;-77
2021/05/16 03:33:31;;;;;;;12.05;6.80;;;;;;;7.41;100.00;100106.34;4984722;28;20057;-76
2021/05/16 03:35:56;;;;;;;7.43;6.45;;;;;;;7.46;100.00;100108.56;4967093;28;20125;-76
2021/05/16 03:38:22;;;;;;;7.72;6.18;;;;;;;7.45;100.00;100109.50;4983243;28;20073;-77
2021/05/16 03:40:48;;;;;;;7.70;5.97;;;;;;;7.41;100.00;100102.94;4970847;28;20049;-76
2021/05/16 03:43:13;;;;;;;6.90;6.20;;;;;;;7.39;100.00;100097.03;4970146;28;20496;-76
2021/05/16 03:45:39;;;;;;;8.68;5.70;;;;;;;7.31;100.00;100102.09;4988161;28;20039;-76
2021/05/16 03:48:05;;;;;;;8.18;6.03;;;;;;;7.26;100.00;100105.16;4987717;28;20054;-77
2021/05/16 03:50:31;;;;;;;6.57;5.85;;;;;;;7.17;100.00;100101.59;4964821;28;20136;-76
2021/05/16 03:52:57;;;;;;;8.68;6.10;;;;;;;7.18;100.00;100105.03;4969955;28;20057;-77
2021/05/16 03:55:22;;;;;;;8.20;6.10;;;;;;;7.26;100.00;100106.94;4954597;28;20449;-78
2021/05/16 03:57:51;;;;;;;8.00;6.40;;;;;;;7.28;100.00;100108.44;4972654;28;20120;-76
2021/05/16 04:00:17;;;;;;;7.07;6.18;;;;;;;7.32;100.00;100099.38;4971047;28;20467;-78
2021/05/16 04:02:43;;;;;;;7.45;5.68;;;;;;;7.38;100.00;100108.41;4970831;28;20039;-78
2021/05/16 04:05:10;;;;;;;6.45;5.85;;;;;;;7.45;100.00;100112.09;4989523;28;20042;-76
2021/05/16 04:07:36;;;;;;;7.57;5.78;;;;;;;7.51;100.00;100116.75;4985362;28;20141;-76
2021/05/16 04:10:03;;;;;;;6.72;5.97;;;;;;;7.55;100.00;100119.91;4967497;28;20903;-77
2021/05/16 04:12:28;;;;;;;6.40;5.75;;;;;;;7.57;99.91;100112.75;4970506;28;21376;-77
2021/05/16 04:14:54;;;;;;;6.68;5.68;;;;;;;7.64;100.00;100111.22;4971544;28;20042;-77
2021/05/16 04:17:19;;;;;;;6.78;5.35;;;;;;;7.68;100.00;100109.97;4941891;28;20075;-77
2021/05/16 04:19:45;;;;;;;8.98;5.72;;;;;;;7.75;100.00;100120.69;4988773;28;20038;-77
2021/05/16 04:22:12;;;;;;;6.13;5.18;;;;;;;7.77;100.00;100119.56;4993557;28;20053;-77
2021/05/16 04:24:37;;;;;;;8.10;5.40;;;;;;;7.82;100.00;100113.91;4953201;28;20042;-76
2021/05/16 04:27:03;;;;;;;9.13;5.22;;;;;;;7.86;100.00;100117.88;4987335;28;20034;-76
2021/05/16 04:29:29;;;;;;;6.80;5.43;;;;;;;7.86;99.41;100117.06;4969086;28;20043;-76
2021/05/16 04:31:54;;;;;;;6.53;5.25;;;;;;;7.90;99.93;100121.03;4968789;28;20050;-76
2021/05/16 04:34:20;;;;;;;7.32;4.88;;;;;;;7.92;99.92;100116.47;4969647;28;20046;-77
2021/05/16 04:36:45;;;;;;;5.95;5.15;;;;;;;7.97;99.57;100124.72;4969670;28;20073;-77
2021/05/16 04:39:11;;;;;;;6.88;4.75;;;;;;;8.02;99.38;100121.66;4985391;28;20050;-76
2021/05/16 04:41:37;;;;;;;5.90;5.30;;;;;;;8.02;99.02;100126.88;4985650;28;20435;-77
2021/05/16 04:44:03;;;;;;;6.72;5.10;;;;;;;8.07;99.42;100125.47;4985774;28;20566;-76
2021/05/16 04:46:29;;;;;;;5.68;4.93;;;;;;;8.12;98.48;100123.25;4970068;28;20050;-78
2021/05/16 04:48:55;;;;;;;6.65;4.75;;;;;;;8.13;97.98;100124.88;4968701;28;20069;-76
2021/05/16 04:51:20;;;;;;;6.05;4.50;;;;;;;8.13;98.55;100117.03;4968325;28;20038;-75
2021/05/16 04:53:46;;;;;;;5.70;5.10;;;;;;;8.15;98.06;100115.09;4986834;28;20057;-76
2021/05/16 04:56:12;;;;;;;6.90;5.15;;;;;;;8.15;98.31;100112.50;4968607;28;20522;-76
2021/05/16 04:58:37;;;;;;;4.88;4.47;;;;;;;8.23;98.63;100113.56;4969136;28;20059;-77
2021/05/16 05:01:05;;;;;;;5.63;5.03;;;;;;;8.31;98.11;100122.31;4983403;28;20042;-75
2021/05/16 05:03:31;;;;;;;6.05;4.82;;;;;;;8.34;97.83;100118.59;4969032;28;20813;-76
2021/05/16 05:05:57;;;;;;;6.70;5.07;;;;;;;8.41;97.54;100122.25;4969543;28;20077;-77
2021/05/16 05:08:24;;;;;;;5.82;4.88;;;;;;;8.50;97.99;100125.81;4952549;28;20073;-75
2021/05/16 05:10:50;;;;;;;6.00;4.95;;;;;;;8.57;98.09;100121.66;4955787;28;20403;-77
2021/05/16 05:13:16;;;;;;;6.55;4.93;;;;;;;8.65;98.14;100119.09;4984616;28;20042;-76
2021/05/16 05:15:41;;;;;;;5.70;4.53;;;;;;;8.63;96.58;100117.63;4968290;28;20042;-75
2021/05/16 05:18:07;;;;;;;5.00;4.50;;;;;;;8.65;96.72;100120.91;4970228;28;20048;-76
2021/05/16 05:20:33;;;;;;;7.43;5.05;;;;;;;8.77;97.29;100117.88;4971774;28;20049;-77
2021/05/16 05:23:00;;;;;;;5.68;4.60;;;;;;;8.77;96.62;100119.69;4992040;28;20085;-76
2021/05/16 05:25:26;;;;;;;6.65;4.20;;;;;;;8.76;96.52;100123.28;4972866;28;20070;-78
2021/05/16 05:27:54;;;;;;;7.53;4.53;;;;;;;8.82;96.48;100125.31;4970180;28;20090;-75
2021/05/16 05:30:20;;;;;;;5.60;4.38;;;;;;;8.83;97.04;100126.13;4974705;28;20045;-77
2021/05/16 05:32:46;;;;;;;5.07;4.13;;;;;;;8.90;97.31;100119.31;4979681;28;20042;-75
2021/05/16 05:35:11;;;;;;;5.60;4.32;;;;;;;8.99;96.84;100122.84;4971994;28;20419;-78
2021/05/16 05:37:37;;;;;;;4.72;4.20;;;;;;;9.08;96.83;100125.34;4988940;28;20559;-76
2021/05/16 05:40:03;;;;;;;5.40;4.45;;;;;;;9.20;96.28;100115.47;4955408;28;20073;-77
2021/05/16 05:42:29;;;;;;;5.32;4.28;;;;;;;9.27;95.61;100118.28;4992730;28;20044;-78
2021/05/16 05:44:54;;;;;;;4.95;4.40;;;;;;;9.29;96.15;100121.56;4992473;28;20125;-77
2021/05/16 05:47:20;;;;;;;6.80;4.32;;;;;;;9.20;95.13;100122.50;4974819;28;20050;-76
2021/05/16 05:49:45;;;;;;;5.35;4.68;;;;;;;9.10;96.24;100127.81;4993249;28;20487;-76
2021/05/16 05:52:11;;;;;;;7.22;4.30;;;;;;;9.04;97.37;100121.41;4988317;28;20488;-77
2021/05/16 05:54:37;;;;;;;5.82;4.28;;;;;;;8.99;97.26;100118.41;4972672;28;20478;-75
2021/05/16 05:57:04;;;;;;;7.00;4.70;;;;;;;9.03;98.08;100124.16;4989515;28;20511;-75
2021/05/16 05:59:31;;;;;;;7.22;5.20;;;;;;;8.98;98.16;100111.53;4978967;28;20046;-75
2021/05/16 06:02:01;;;;;;;6.03;5.18;;;;;;;9.04;97.94;100116.16;4971648;28;20074;-74
2021/05/16 06:04:26;;;;;;;7.18;5.22;;;;;;;9.02;98.70;100107.63;4972897;28;20209;-75
2021/05/16 06:06:52;;;;;;;7.63;5.18;;;;;;;9.07;99.09;100120.28;4989850;28;20510;-75
2021/05/16 06:09:17;;;;;;;7.20;5.47;;;;;;;9.09;98.55;100116.50;4987916;28;20042;-74
2021/05/16 06:11:43;;;;;;;5.47;4.95;;;;;;;9.20;98.58;100128.53;4988345;28;20105;-73
2021/05/16 06:14:09;;;;;;;6.50;5.13;;;;;;;9.37;98.51;100128.66;4986793;28;20050;-74
2021/05/16 06:16:34;;;;;;;8.65;5.00;;;;;;;9.54;98.67;100125.16;4974461;28;20447;-75
2021/05/16 06:19:00;;;;;;;8.00;5.55;;;;;;;9.66;98.01;100126.56;4989921;28;20035;-74
2021/05/16 06:21:29;;;;;;;5.60;4.90;;;;;;;9.70;96.48;100134.91;4987691;28;20109;-74
2021/05/16 06:24:27;;;;;;;5.25;4.45;;;;;;;9.71;96.07;100124.28;4988544;28;20042;-74
2021/05/16 06:26:46;;;;;;;7.15;4.93;;;;;;;9.82;96.41;100123.19;4985262;28;20049;-74
2021/05/16 06:29:13;;;;;;;5.63;4.50;;;;;;;9.90;96.39;100122.41;4972900;28;20046;-74
2021/05/16 06:31:40;;;;;;;7.00;4.90;;;;;;;9.93;95.44;100125.53;4993356;28;20081;-75
2021/05/16 06:34:06;;;;;;;5.70;4.88;;;;;;;9.91;95.45;100124.06;4981493;28;20126;-77
2021/05/16 06:36:32;;;;;;;8.50;4.65;;;;;;;9.87;95.83;100126.16;4988093;28;20058;-74
2021/05/16 06:38:57;;;;;;;6.60;5.30;;;;;;;9.89;95.73;100123.41;4970975;28;20996;-74
2021/05/16 06:41:24;;;;;;;7.88;5.32;;;;;;;10.08;95.53;100125.75;4988808;28;20073;-75
2021/05/16 06:43:51;;;;;;;6.07;4.95;;;;;;;10.20;95.39;100122.84;4981771;28;20031;-74
2021/05/16 06:46:17;;;;;;;5.95;5.35;;;;;;;10.28;94.68;100128.09;4970819;28;20050;-74
2021/05/16 06:48:43;;;;;;;7.05;5.95;;;;;;;10.48;94.71;100123.44;4988659;28;20053;-77
2021/05/16 06:51:09;;;;;;;6.35;5.75;;;;;;;10.54;94.84;100120.16;4987270;28;20038;-74
2021/05/16 06:53:35;;;;;;;9.70;6.15;;;;;;;10.70;93.68;100120.19;4987050;28;20050;-75
2021/05/16 06:56:01;;;;;;;6.13;5.53;;;;;;;10.88;92.57;100120.03;4955880;28;20058;-75
2021/05/16 06:58:26;;;;;;;8.35;5.93;;;;;;;10.98;92.39;100124.28;4986145;28;20065;-75
2021/05/16 07:00:52;;;;;;;6.60;6.00;;;;;;;11.05;92.01;100125.28;4987254;28;20042;-75
2021/05/16 07:03:17;;;;;;;7.63;6.22;;;;;;;11.10;92.50;100129.06;4987057;28;20050;-75
2021/05/16 07:05:43;;;;;;;7.70;6.13;;;;;;;11.16;93.08;100138.06;4988718;28;20045;-76
2021/05/16 07:08:09;;;;;;;9.50;7.10;;;;;;;11.22;92.03;100129.53;4987333;28;20046;-74
2021/05/16 07:10:35;;;;;;;7.47;6.60;;;;;;;11.22;92.18;100132.16;4992033;28;20531;-75
2021/05/16 07:13:00;;;;;;;9.73;7.20;;;;;;;11.36;92.43;100128.06;4986717;28;20057;-77
2021/05/16 07:15:26;;;;;;;10.00;7.47;;;;;;;11.37;91.19;100134.94;4989932;28;20177;-75
2021/05/16 07:17:52;;;;;;;9.52;7.68;;;;;;;11.30;90.32;100132.16;4975168;28;20129;-75
2021/05/16 07:20:18;;;;;;;8.73;7.10;;;;;;;11.27;90.53;100137.75;4959218;28;20645;-76
2021/05/16 07:22:43;;;;;;;9.13;8.20;;;;;;;11.22;89.96;100139.22;4978809;28;20113;-76
2021/05/16 07:25:09;;;;;;;9.07;8.10;;;;;;;11.05;89.97;100139.22;4970755;28;20393;-76
2021/05/16 07:27:35;;;;;;;17.50;8.88;;;;;;;10.96;89.80;100129.69;4984402;28;20077;-75
2021/05/16 07:30:01;;;;;;;11.35;8.30;;;;;;;10.86;90.36;100129.88;4946516;28;20516;-78
2021/05/16 07:32:26;;;;;;;12.68;8.90;;;;;;;10.86;89.61;100135.13;4994389;28;20054;-76
2021/05/16 07:34:52;;;;;;;11.50;9.43;;;;;;;10.92;88.92;100136.25;4997623;28;20455;-75
2021/05/16 07:37:17;;;;;;;12.02;9.43;;;;;;;11.02;89.37;100136.94;4988904;28;20192;-77
2021/05/16 07:39:43;;;;;;;10.43;9.10;;;;;;;11.16;89.80;100140.69;4969021;28;20049;-75
2021/05/16 07:42:08;;;;;;;11.23;9.40;;;;;;;11.30;88.86;100139.19;4986444;28;20073;-77
2021/05/16 07:44:34;;;;;;;13.30;9.73;;;;;;;11.48;88.64;100136.41;4954536;28;20050;-76
2021/05/16 07:47:00;;;;;;;12.98;10.45;;;;;;;11.68;86.76;100142.91;4969570;28;20496;-74
2021/05/16 07:49:25;;;;;;;12.27;9.07;;;;;;;11.87;84.66;100131.19;4970767;28;20038;-76
2021/05/16 07:51:51;;;;;;;13.85;9.27;;;;;;;11.96;83.10;100132.03;4969688;28;20049;-75
2021/05/16 07:54:16;;;;;;;12.15;10.05;;;;;;;11.89;83.75;100136.28;4970283;28;20157;-75
2021/05/16 07:56:42;;;;;;;14.65;9.60;;;;;;;11.78;85.43;100139.28;4988874;28;20076;-76
2021/05/16 07:59:08;;;;;;;14.35;9.45;;;;;;;11.71;84.83;100144.38;4938629;28;20058;-74
2021/05/16 08:01:33;;;;;;;12.15;10.00;;;;;;;11.64;84.29;100136.38;4987650;28;20049;-74
2021/05/16 08:03:59;;;;;;;13.20;9.70;;;;;;;11.49;85.18;100135.41;4986895;28;20649;-76
2021/05/16 08:06:24;;;;;;;12.85;10.77;;;;;;;11.49;86.18;100130.16;4988023;28;20046;-77
2021/05/16 08:08:50;;;;;;;11.68;10.25;;;;;;;11.45;85.36;100126.22;5000788;28;20759;-76
2021/05/16 08:11:16;;;;;;;12.07;9.80;;;;;;;11.44;85.19;100133.28;4973588;28;20050;-75
2021/05/16 08:13:41;;;;;;;12.52;10.00;;;;;;;11.45;84.77;100128.84;4976772;28;20093;-75
2021/05/16 08:16:07;;;;;;;16.45;10.80;;;;;;;11.45;84.88;100128.84;4986699;28;20051;-76
2021/05/16 08:18:32;;;;;;;11.18;9.55;;;;;;;11.61;85.09;100133.25;4970596;28;20101;-77
2021/05/16 08:20:58;;;;;;;13.43;9.90;;;;;;;11.79;82.43;100128.63;4970002;28;20097;-76
2021/05/16 08:23:24;;;;;;;12.30;9.15;;;;;;;12.02;85.28;100125.28;4987743;28;20695;-76
2021/05/16 08:25:50;;;;;;;15.43;9.95;;;;;;;12.37;83.08;100120.47;4970706;28;20042;-75
2021/05/16 08:28:15;;;;;;;10.90;9.63;;;;;;;12.56;80.50;100125.28;4963228;28;20117;-76
2021/05/16 08:30:41;;;;;;;10.32;9.07;;;;;;;12.55;81.00;100122.84;4963667;28;20129;-77
2021/05/16 08:33:07;;;;;;;12.38;8.65;;;;;;;12.63;80.29;100125.41;4990444;28;20420;-77
2021/05/16 08:35:33;;;;;;;10.75;8.32;;;;;;;12.83;80.49;100123.16;4957829;28;20072;-76
2021/05/16 08:37:59;;;;;;;11.90;7.70;;;;;;;12.89;79.56;100121.63;4974034;28;20038;-75
2021/05/16 08:40:24;;;;;;;11.38;7.03;;;;;;;12.92;78.43;100118.63;4987090;28;20051;-77
2021/05/16 08:42:50;;;;;;;11.20;6.75;;;;;;;12.94;77.54;100119.25;4993349;28;20042;-77
2021/05/16 08:45:17;;;;;;;10.77;7.00;;;;;;;13.55;76.86;100119.25;4992915;28;20046;-76
2021/05/16 08:47:44;;;;;;;10.43;7.22;;;;;;;13.70;74.39;100127.97;4986091;28;20046;-76
2021/05/16 08:50:14;;;;;;;8.48;6.57;;;;;;;13.81;76.38;100132.78;4985716;28;20053;-75
2021/05/16 08:52:40;;;;;;;8.63;6.13;;;;;;;13.96;73.64;100126.69;4985202;28;20057;-76
2021/05/16 08:55:07;;;;;;;6.85;5.95;;;;;;;13.86;73.26;100134.84;4947319;28;20038;-74
2021/05/16 08:57:33;;;;;;;11.35;5.80;;;;;;;13.87;74.99;100127.78;4952914;28;20496;-75
2021/05/16 09:00:07;;;;;;;8.45;5.50;;;;;;;14.17;73.69;100128.56;4984693;28;20049;-76
2021/05/16 09:02:32;;;;;;;10.77;5.28;;;;;;;14.24;72.61;100129.47;4970174;28;20046;-75
2021/05/16 09:04:58;;;;;;;7.45;5.57;;;;;;;14.23;72.29;100127.00;4986091;28;20053;-74
2021/05/16 09:07:31;;;;;;;10.65;5.82;;;;;;;13.79;74.29;100140.03;4967127;28;20042;-76
2021/05/16 09:09:57;;;;;;;3.35;1.45;;;;;;;12.96;72.41;100130.44;4983883;28;20042;-73
2021/05/16 09:12:23;;;;;;;2.38;1.10;;;;;;;12.19;74.65;100150.50;4986291;28;20072;-76
2021/05/16 09:14:50;;;;;;;3.45;1.15;;;;;;;11.66;81.49;100151.97;4984763;28;20686;-75
2021/05/16 09:17:27;;;;;;;2.88;1.40;;;;;;;11.12;84.65;100159.56;4974676;28;20046;-74
2021/05/16 09:20:07;;;;;;;5.63;1.42;;;;;;;10.80;89.16;100154.13;4969029;28;20512;-76
2021/05/16 09:22:41;;;;;;;5.35;1.30;;;;;;;10.86;89.87;100153.47;4966418;28;20050;-76
2021/05/16 09:25:19;;;;;;;2.75;1.38;;;;;;;10.96;91.15;100153.31;4974052;28;20042;-76
2021/05/16 09:27:47;;;;;;;2.75;1.52;;;;;;;11.14;90.02;100149.72;4937112;28;20061;-76
2021/05/16 09:30:16;;;;;;;2.33;1.63;;;;;;;11.34;87.61;100153.66;4988243;28;20105;-75
2021/05/16 09:32:53;;;;;;;1.85;1.40;;;;;;;11.37;87.41;100158.56;4962088;28;20675;-76
2021/05/16 09:35:26;;;;;;;3.40;1.48;;;;;;;11.58;88.79;100154.59;4979394;28;20058;-77
2021/05/16 09:38:06;;;;;;;4.38;1.70;;;;;;;11.63;87.75;100154.91;4985432;28;20038;-76
2021/05/16 09:40:39;;;;;;;3.00;2.00;;;;;;;11.72;84.83;100153.09;4983250;28;20050;-76
2021/05/16 09:43:13;;;;;;;4.32;2.05;;;;;;;11.86;87.11;100152.38;4984736;28;20050;-76
2021/05/16 09:45:44;;;;;;;4.05;2.47;;;;;;;12.41;84.95;100146.28;4985629;28;20045;-76
2021/05/16 09:48:17;;;;;;;5.00;2.72;;;;;;;13.10;81.00;100139.38;4983976;28;20043;-76
2021/05/16 09:50:42;;;;;;;4.80;3.10;;;;;;;13.56;78.77;100140.13;4984416;28;20042;-75
2021/05/16 09:53:10;;;;;;;4.70;3.72;;;;;;;14.07;77.13;100138.56;4982003;28;20108;-75
2021/05/16 09:55:37;;;;;;;7.45;3.72;;;;;;;14.62;76.60;100131.09;4966465;28;20085;-75
2021/05/16 09:58:03;;;;;;;6.78;3.90;;;;;;;14.62;73.93;100131.91;4951606;28;20044;-76
2021/05/16 10:00:29;;;;;;;7.90;3.75;;;;;;;14.32;73.84;100126.69;4967523;28;20075;-75
2021/05/16 10:02:55;;;;;;;7.40;4.50;;;;;;;14.17;79.73;100125.91;4985678;28;20085;-75
2021/05/16 10:05:20;;;;;;;9.50;5.00;;;;;;;14.12;82.25;100126.47;4971946;28;20484;-76
2021/05/16 10:07:46;;;;;;;9.50;5.97;;;;;;;13.98;76.64;100138.66;4971982;28;20070;-75
2021/05/16 10:10:12;;;;;;;11.27;5.82;;;;;;;13.69;79.96;100128.94;4954297;28;20516;-75
2021/05/16 10:12:39;;;;;;;12.63;5.95;;;;;;;13.42;83.06;100131.19;4990402;28;20104;-76
2021/05/16 10:15:12;;;;;;;12.35;6.72;;;;;;;13.17;84.94;100124.53;4971963;28;20043;-77
2021/05/16 10:17:41;;;;;;;19.88;7.32;;;;;;;12.89;87.15;100122.44;4989234;28;20046;-77
2021/05/16 10:20:15;;;;;;;17.67;8.27;;;;;;;12.60;88.80;100120.50;4986058;28;20049;-76
2021/05/16 10:22:50;;;;;;;15.50;8.10;;;;;;;12.48;90.66;100117.47;4970546;28;20057;-76
2021/05/16 10:25:39;;;;;;;18.38;9.43;;;;;;;12.57;90.51;100120.88;4992249;28;20689;-75
2021/05/16 10:28:05;;;;;;;16.23;9.00;;;;;;;12.46;90.34;100112.38;4963345;28;20050;-77
2021/05/16 10:30:30;;;;;;;22.98;10.15;;;;;;;12.41;92.15;100111.25;4972331;28;20049;-76
2021/05/16 10:32:56;;;;;;;16.35;9.88;;;;;;;12.53;92.79;100109.06;4989722;28;20038;-77
2021/05/16 10:35:23;;;;;;;19.25;11.15;;;;;;;12.62;94.21;100110.63;4987272;28;20591;-76
2021/05/16 10:37:53;;;;;;;20.25;10.73;;;;;;;13.37;91.82;100112.50;4985590;28;20097;-77
2021/05/16 10:40:28;;;;;;;16.70;10.02;;;;;;;14.35;88.45;100114.94;4984700;28;20178;-77
2021/05/16 10:43:23;;;;;;;10.77;4.30;;;;;;;14.51;79.41;100106.81;4975046;28;20054;-75
2021/05/16 10:45:48;;;;;;;11.55;4.97;;;;;;;14.86;78.51;100087.66;4982469;28;20054;-77
2021/05/16 10:48:20;;;;;;;10.48;4.88;;;;;;;14.66;76.54;100098.84;4970869;28;20511;-75
2021/05/16 10:50:52;;;;;;;10.25;5.20;;;;;;;13.99;78.41;100108.69;4986565;28;20498;-76
2021/05/16 10:53:19;;;;;;;13.05;5.22;;;;;;;13.57;82.07;100112.78;4970889;28;20057;-76
2021/05/16 10:56:11;;;;;;;12.90;3.15;;;;;;;13.21;81.76;100112.63;4955495;28;20054;-76
2021/05/16 10:58:48;;;;;;;3.10;1.80;;;;;;;13.00;82.99;100118.56;4971072;28;20042;-76
2021/05/16 11:01:32;;;;;;;2.05;1.20;;;;;;;12.97;83.04;100118.91;4985930;28;20171;-77
2021/05/16 11:04:00;;;;;;;4.50;1.40;;;;;;;12.96;81.01;100126.00;4969335;28;20086;-76
2021/05/16 11:06:38;;;;;;;6.00;1.50;;;;;;;12.98;81.10;100126.66;4971384;28;20042;-75
2021/05/16 11:09:06;;;;;;;2.60;1.60;;;;;;;12.85;80.72;100126.44;4994425;28;20459;-75
2021/05/16 11:11:49;;;;;;;3.75;1.88;;;;;;;12.89;80.23;100137.41;4988167;28;20085;-76
2021/05/16 11:14:17;;;;;;;5.00;1.50;;;;;;;12.97;80.59;100126.81;4982718;28;20046;-77
2021/05/16 11:16:45;;;;;;;3.17;1.80;;;;;;;13.02;80.36;100120.03;4986260;28;20578;-76
2021/05/16 11:19:11;;;;;;;1.85;1.30;;;;;;;13.08;77.82;100117.69;4986723;28;20558;-75
2021/05/16 11:21:36;;;;;;;1.42;1.20;;;;;;;13.02;79.57;100113.94;4987440;28;20047;-76
2021/05/16 11:24:04;;;;;;;3.67;1.75;;;;;;;13.22;80.97;100117.72;4987031;28;20057;-75
2021/05/16 11:26:29;;;;;;;3.65;1.52;;;;;;;13.49;79.06;100109.44;4982081;28;20038;-75